createdAt,value
2018-12-21T00:00:54.634Z,8.20
2018-12-21T00:02:57.420Z,11.20
2018-12-21T00:05:00.063Z,9.70
2018-12-21T00:07:02.687Z,7.20
2018-12-21T00:09:05.987Z,11.63
2018-12-21T00:11:09.605Z,21.03
2018-12-21T00:13:12.187Z,14.50
2018-12-21T00:15:15.670Z,10.43
2018-12-21T00:17:18.775Z,10.97
2018-12-21T00:19:21.534Z,8.53
2018-12-21T00:21:24.135Z,12.80
2018-12-21T00:23:26.743Z,6.80
2018-12-21T00:25:29.389Z,7.00
2018-12-21T00:27:32.316Z,12.77
2018-12-21T00:29:35.135Z,8.17
2018-12-21T00:31:43.392Z,9.80
2018-12-21T00:33:51.645Z,8.30
2018-12-21T00:35:59.951Z,16.27
2018-12-21T00:38:08.057Z,5.50
2018-12-21T00:40:16.366Z,8.10
2018-12-21T00:42:20.963Z,3.47
2018-12-21T00:44:27.411Z,6.50
2018-12-21T00:46:32.115Z,5.23
2018-12-21T00:48:34.834Z,7.43
2018-12-21T00:50:37.448Z,7.83
2018-12-21T00:52:40.039Z,8.60
2018-12-21T00:54:42.663Z,11.10
2018-12-21T00:56:45.339Z,7.13
2018-12-21T00:58:47.931Z,9.97
2018-12-21T01:00:50.562Z,5.57
2018-12-21T01:02:53.131Z,8.10
2018-12-21T01:04:56.059Z,6.37
2018-12-21T01:06:58.682Z,8.93
2018-12-21T01:09:01.247Z,12.93
2018-12-21T01:11:03.930Z,6.33
2018-12-21T01:13:06.590Z,10.03
2018-12-21T01:15:09.346Z,5.90
2018-12-21T01:17:12.176Z,5.27
2018-12-21T01:19:14.763Z,4.80
2018-12-21T01:21:17.489Z,4.67
2018-12-21T01:23:20.087Z,6.90
2018-12-21T01:25:22.697Z,9.33
2018-12-21T01:27:25.434Z,4.63
2018-12-21T01:29:28.013Z,11.40
2018-12-21T01:31:31.231Z,9.17
2018-12-21T01:33:33.921Z,7.73
2018-12-21T01:35:36.625Z,6.53
2018-12-21T01:37:39.225Z,5.20
2018-12-21T01:39:41.946Z,9.20
2018-12-21T01:41:44.683Z,7.83
2018-12-21T01:43:47.688Z,10.27
2018-12-21T01:45:50.301Z,13.87
2018-12-21T01:47:52.928Z,7.17
2018-12-21T01:49:56.343Z,5.30
2018-12-21T01:51:58.985Z,10.90
2018-12-21T01:54:01.591Z,6.53
2018-12-21T01:56:04.271Z,15.30
2018-12-21T01:58:06.882Z,9.80
2018-12-21T02:00:09.716Z,11.37
2018-12-21T02:02:12.490Z,9.33
2018-12-21T02:04:15.123Z,11.70
2018-12-21T02:06:17.728Z,10.07
2018-12-21T02:08:20.341Z,9.97
2018-12-21T02:10:23.013Z,8.97
2018-12-21T02:12:25.623Z,11.87
2018-12-21T02:14:28.235Z,10.03
2018-12-21T02:16:30.895Z,14.87
2018-12-21T02:18:33.527Z,7.80
2018-12-21T02:20:36.246Z,8.93
2018-12-21T02:22:38.854Z,6.93
2018-12-21T02:24:41.501Z,6.27
2018-12-21T02:26:44.123Z,7.50
2018-12-21T02:28:46.730Z,6.93
2018-12-21T02:30:49.323Z,6.40
2018-12-21T02:32:51.909Z,10.83
2018-12-21T02:34:54.561Z,15.00
2018-12-21T02:36:57.160Z,7.47
2018-12-21T02:39:03.118Z,8.87
2018-12-21T02:41:05.744Z,12.10
2018-12-21T02:43:08.348Z,6.97
2018-12-21T02:45:10.903Z,8.40
2018-12-21T02:47:13.751Z,9.13
2018-12-21T02:49:16.370Z,12.30
2018-12-21T02:51:18.955Z,8.43
2018-12-21T02:53:21.538Z,10.47
2018-12-21T02:55:24.107Z,8.30
2018-12-21T02:57:26.786Z,7.73
2018-12-21T02:59:29.409Z,13.70
2018-12-21T03:01:32.027Z,9.80
2018-12-21T03:03:34.586Z,15.63
2018-12-21T03:05:37.162Z,12.60
2018-12-21T03:07:39.795Z,10.30
2018-12-21T03:09:42.401Z,7.13
2018-12-21T03:11:45.023Z,6.10
2018-12-21T03:13:47.607Z,6.20
2018-12-21T03:15:50.221Z,6.40
2018-12-21T03:17:52.790Z,9.73
2018-12-21T03:19:55.370Z,7.10
2018-12-21T03:21:57.967Z,11.13
2018-12-21T03:24:00.591Z,15.17
2018-12-21T03:26:03.291Z,7.00
2018-12-21T03:28:05.877Z,8.00
2018-12-21T03:30:08.551Z,5.67
2018-12-21T03:32:11.181Z,11.80
2018-12-21T03:34:13.772Z,17.17
2018-12-21T03:36:16.377Z,6.27
2018-12-21T03:38:18.970Z,11.80
2018-12-21T03:40:21.553Z,7.07
2018-12-21T03:42:24.192Z,5.40
2018-12-21T03:44:26.817Z,12.53
2018-12-21T03:46:30.092Z,10.93
2018-12-21T03:48:32.668Z,8.70
2018-12-21T03:50:35.353Z,8.70
2018-12-21T03:52:38.030Z,10.80
2018-12-21T03:54:41.485Z,9.63
2018-12-21T03:56:44.090Z,5.20
2018-12-21T03:58:48.338Z,14.30
2018-12-21T04:00:50.919Z,7.13
2018-12-21T04:02:54.405Z,4.73
2018-12-21T04:04:57.648Z,10.90
2018-12-21T04:07:00.236Z,4.70
2018-12-21T04:09:02.914Z,8.80
2018-12-21T04:11:05.521Z,7.27
2018-12-21T04:13:08.116Z,3.50
2018-12-21T04:15:11.693Z,5.40
2018-12-21T04:17:14.334Z,4.80
2018-12-21T04:19:16.915Z,5.17
2018-12-21T04:21:20.185Z,5.67
2018-12-21T04:23:22.749Z,5.17
2018-12-21T04:25:25.355Z,6.30
2018-12-21T04:27:27.983Z,5.37
2018-12-21T04:29:30.556Z,4.00
2018-12-21T04:31:33.253Z,5.83
2018-12-21T04:33:36.057Z,8.00
2018-12-21T04:35:38.692Z,7.10
2018-12-21T04:37:41.297Z,7.30
2018-12-21T04:39:44.620Z,2.90
2018-12-21T04:41:47.254Z,7.30
2018-12-21T04:43:50.268Z,7.30
2018-12-21T04:45:52.888Z,6.10
2018-12-21T04:47:55.481Z,6.60
2018-12-21T04:49:58.060Z,4.03
2018-12-21T04:52:00.670Z,5.43
2018-12-21T04:54:03.347Z,3.83
2018-12-21T04:56:07.159Z,3.40
2018-12-21T04:58:09.790Z,4.00
2018-12-21T05:00:12.370Z,3.90
2018-12-21T05:02:15.279Z,2.90
2018-12-21T05:04:20.119Z,5.10
2018-12-21T05:06:22.441Z,6.07
2018-12-21T05:08:25.879Z,4.43
2018-12-21T05:10:28.476Z,4.93
2018-12-21T05:12:31.093Z,4.87
2018-12-21T05:14:33.682Z,3.70
2018-12-21T05:16:36.287Z,4.70
2018-12-21T05:18:38.928Z,2.73
2018-12-21T05:20:41.504Z,2.60
2018-12-21T05:22:52.058Z,3.03
2018-12-21T05:24:48.719Z,2.20
2018-12-21T05:26:51.453Z,4.30
2018-12-21T05:28:54.043Z,12.07
2018-12-21T05:30:56.628Z,3.77
2018-12-21T05:32:59.285Z,3.87
2018-12-21T05:35:01.852Z,2.33
2018-12-21T05:37:05.245Z,3.40
2018-12-21T05:39:07.837Z,3.40
2018-12-21T05:41:10.393Z,3.27
2018-12-21T05:43:13.024Z,2.33
2018-12-21T05:45:15.650Z,3.50
2018-12-21T05:47:18.328Z,3.50
2018-12-21T05:49:20.925Z,2.53
2018-12-21T05:51:23.523Z,3.57
2018-12-21T05:53:26.406Z,6.67
2018-12-21T05:55:28.963Z,2.30
2018-12-21T05:57:31.816Z,2.60
2018-12-21T05:59:34.396Z,1.90
2018-12-21T06:01:37.033Z,4.90
2018-12-21T06:03:39.631Z,6.03
2018-12-21T06:05:42.706Z,3.00
2018-12-21T06:07:45.332Z,5.83
2018-12-21T06:09:47.951Z,6.40
2018-12-21T06:11:50.558Z,1.97
2018-12-21T06:13:53.897Z,3.63
2018-12-21T06:15:56.515Z,2.40
2018-12-21T06:17:59.215Z,2.13
2018-12-21T06:20:01.770Z,1.77
2018-12-21T06:22:04.426Z,1.63
2018-12-21T06:24:07.045Z,1.97
2018-12-21T06:26:10.535Z,2.57
2018-12-21T06:28:13.239Z,2.17
2018-12-21T06:30:15.866Z,3.07
2018-12-21T06:32:18.477Z,2.53
2018-12-21T06:34:21.117Z,2.70
2018-12-21T06:36:23.769Z,1.70
2018-12-21T06:38:27.143Z,1.97
2018-12-21T06:40:29.780Z,2.50
2018-12-21T06:42:32.658Z,3.43
2018-12-21T06:44:36.136Z,2.30
2018-12-21T06:46:38.711Z,2.17
2018-12-21T06:48:41.326Z,2.97
2018-12-21T06:50:43.892Z,3.40
2018-12-21T06:52:46.541Z,1.60
2018-12-21T06:54:49.136Z,2.27
2018-12-21T06:56:51.707Z,1.93
2018-12-21T06:58:56.518Z,4.33
2018-12-21T07:01:00.700Z,4.43
2018-12-21T07:03:03.615Z,1.97
2018-12-21T07:05:06.930Z,3.13
2018-12-21T07:07:09.982Z,2.80
2018-12-21T07:09:12.673Z,2.17
2018-12-21T07:11:16.888Z,2.40
2018-12-21T07:13:19.521Z,4.73
2018-12-21T07:15:22.263Z,1.60
2018-12-21T07:17:26.303Z,1.80
2018-12-21T07:19:28.942Z,1.83
2018-12-21T07:21:31.520Z,1.73
2018-12-21T07:23:34.177Z,1.53
2018-12-21T07:25:36.776Z,2.17
2018-12-21T07:27:39.380Z,1.93
2018-12-21T07:29:42.011Z,1.73
2018-12-21T07:31:44.632Z,1.57
2018-12-21T07:33:47.264Z,3.67
2018-12-21T07:35:49.885Z,1.87
2018-12-21T07:37:52.533Z,1.70
2018-12-21T07:39:55.249Z,1.70
2018-12-21T07:41:59.654Z,1.53
2018-12-21T07:44:02.656Z,2.97
2018-12-21T07:46:05.453Z,1.87
2018-12-21T07:48:08.228Z,3.30
2018-12-21T07:50:11.032Z,1.50
2018-12-21T07:52:15.256Z,3.47
2018-12-21T07:54:18.132Z,2.10
2018-12-21T07:56:20.779Z,1.33
2018-12-21T07:58:23.464Z,2.73
2018-12-21T08:00:26.242Z,2.30
2018-12-21T08:02:28.910Z,2.10
2018-12-21T08:04:31.733Z,1.73
2018-12-21T08:06:35.021Z,2.90
2018-12-21T08:08:37.928Z,3.00
2018-12-21T08:10:40.739Z,1.60
2018-12-21T08:12:43.429Z,1.67
2018-12-21T08:14:46.262Z,2.57
2018-12-21T08:16:48.937Z,3.63
2018-12-21T08:18:51.889Z,1.70
2018-12-21T08:20:54.659Z,2.70
2018-12-21T08:22:57.330Z,1.60
2018-12-21T08:25:00.959Z,1.47
2018-12-21T08:27:03.806Z,3.20
2018-12-21T08:29:06.729Z,2.77
2018-12-21T08:31:11.230Z,6.97
2018-12-21T08:33:14.066Z,2.80
2018-12-21T08:35:17.833Z,1.70
2018-12-21T08:37:21.608Z,1.63
2018-12-21T08:39:24.365Z,2.20
2018-12-21T08:41:27.205Z,2.90
2018-12-21T08:43:29.894Z,1.83
2018-12-21T08:45:32.714Z,3.97
2018-12-21T08:47:35.443Z,2.70
2018-12-21T08:49:38.383Z,1.50
2018-12-21T08:51:41.058Z,1.73
2018-12-21T08:53:43.786Z,1.60
2018-12-21T08:55:46.671Z,1.63
2018-12-21T08:57:49.481Z,1.40
2018-12-21T08:59:53.173Z,1.20
2018-12-21T09:01:55.954Z,2.43
2018-12-21T09:03:58.680Z,1.30
2018-12-21T09:06:01.524Z,1.40
2018-12-21T09:08:04.210Z,1.20
2018-12-21T09:10:08.819Z,1.47
2018-12-21T09:12:11.548Z,1.53
2018-12-21T09:14:14.687Z,1.50
2018-12-21T09:16:17.608Z,1.77
2018-12-21T09:18:20.380Z,1.20
2018-12-21T09:20:23.135Z,5.10
2018-12-21T09:22:25.864Z,1.40
2018-12-21T09:24:28.546Z,1.57
2018-12-21T09:26:31.438Z,3.80
2018-12-21T09:28:34.333Z,2.90
2018-12-21T09:30:37.391Z,3.57
2018-12-21T09:32:40.146Z,1.60
2018-12-21T09:34:42.867Z,2.03
2018-12-21T09:36:45.759Z,1.30
2018-12-21T09:38:48.632Z,1.70
2018-12-21T09:40:51.465Z,2.13
2018-12-21T09:42:54.307Z,1.73
2018-12-21T09:44:57.143Z,1.27
2018-12-21T09:46:59.841Z,1.67
2018-12-21T09:49:02.602Z,2.33
2018-12-21T09:51:05.356Z,1.27
2018-12-21T09:53:08.031Z,2.60
2018-12-21T09:55:10.894Z,1.10
2018-12-21T09:57:13.552Z,1.30
2018-12-21T09:59:16.225Z,1.97
2018-12-21T10:01:18.899Z,1.50
2018-12-21T10:03:21.638Z,1.30
2018-12-21T10:05:25.025Z,1.30
2018-12-21T10:07:27.919Z,1.63
2018-12-21T10:09:30.735Z,1.30
2018-12-21T10:11:33.401Z,5.43
2018-12-21T10:13:36.035Z,1.50
2018-12-21T10:15:39.877Z,1.50
2018-12-21T10:17:42.603Z,1.43
2018-12-21T10:19:45.307Z,1.30
2018-12-21T10:21:48.062Z,1.60
2018-12-21T10:23:50.785Z,2.47
2018-12-21T10:25:54.029Z,1.23
2018-12-21T10:27:56.666Z,1.30
2018-12-21T10:29:59.522Z,1.40
2018-12-21T10:32:02.609Z,1.30
2018-12-21T10:34:05.335Z,1.30
2018-12-21T10:36:08.024Z,1.50
2018-12-21T10:38:10.927Z,2.80
2018-12-21T10:40:13.974Z,3.23
2018-12-21T10:42:17.050Z,3.43
2018-12-21T10:44:19.785Z,2.03
2018-12-21T10:46:22.549Z,1.27
2018-12-21T10:48:25.204Z,1.40
2018-12-21T10:50:29.163Z,1.77
2018-12-21T10:52:32.827Z,1.17
2018-12-21T10:54:35.679Z,1.37
2018-12-21T10:56:38.453Z,1.77
2018-12-21T10:58:41.105Z,1.30
2018-12-21T11:00:43.762Z,1.33
2018-12-21T11:02:46.363Z,1.20
2018-12-21T11:04:49.031Z,1.10
2018-12-21T11:06:52.630Z,1.30
2018-12-21T11:08:55.315Z,1.20
2018-12-21T11:10:57.956Z,1.40
2018-12-21T11:13:00.558Z,1.10
2018-12-21T11:15:04.629Z,1.00
2018-12-21T11:17:07.318Z,1.67
2018-12-21T11:19:09.988Z,1.53
2018-12-21T11:21:12.595Z,3.00
2018-12-21T11:23:15.269Z,1.13
2018-12-21T11:25:17.892Z,1.87
2018-12-21T11:27:20.633Z,2.70
2018-12-21T11:29:23.447Z,1.40
2018-12-21T11:31:26.059Z,1.60
2018-12-21T11:33:28.692Z,2.10
2018-12-21T11:35:31.358Z,1.30
2018-12-21T11:37:34.731Z,1.37
2018-12-21T11:39:37.375Z,1.50
2018-12-21T11:41:41.720Z,1.50
2018-12-21T11:43:44.389Z,1.50
2018-12-21T11:45:46.991Z,1.47
2018-12-21T11:47:49.640Z,3.90
2018-12-21T11:49:52.898Z,1.40
2018-12-21T11:51:55.552Z,1.43
2018-12-21T11:53:58.185Z,1.30
2018-12-21T11:56:00.767Z,1.30
2018-12-21T11:58:03.386Z,1.40
2018-12-21T12:00:08.622Z,1.10
2018-12-21T12:02:19.328Z,1.30
2018-12-21T12:04:16.590Z,2.50
2018-12-21T12:06:19.323Z,1.93
2018-12-21T12:08:21.971Z,5.80
2018-12-21T12:10:25.475Z,1.33
2018-12-21T12:12:28.106Z,10.57
2018-12-21T12:14:30.739Z,2.77
2018-12-21T12:16:33.370Z,2.43
2018-12-21T12:18:36.048Z,1.40
2018-12-21T12:20:39.304Z,1.50
2018-12-21T12:22:42.256Z,1.20
2018-12-21T12:24:52.582Z,1.30
2018-12-21T12:26:50.327Z,1.20
2018-12-21T12:28:52.991Z,1.60
2018-12-21T12:30:55.554Z,1.23
2018-12-21T12:32:58.165Z,1.30
2018-12-21T12:35:00.740Z,1.20
2018-12-21T12:37:03.323Z,1.80
2018-12-21T12:39:06.823Z,2.57
2018-12-21T12:41:09.416Z,1.20
2018-12-21T12:43:13.585Z,3.97
2018-12-21T12:45:16.206Z,2.17
2018-12-21T12:47:18.918Z,3.07
2018-12-21T12:49:22.070Z,1.27
2018-12-21T12:51:24.705Z,1.47
2018-12-21T12:53:27.406Z,1.17
2018-12-21T12:55:30.034Z,1.40
2018-12-21T12:57:32.602Z,4.30
2018-12-21T12:59:35.345Z,1.40
2018-12-21T13:01:37.959Z,1.60
2018-12-21T13:03:40.555Z,1.90
2018-12-21T13:05:43.167Z,1.50
2018-12-21T13:07:46.461Z,1.30
2018-12-21T13:09:49.073Z,1.70
2018-12-21T13:11:51.666Z,1.53
2018-12-21T13:13:54.971Z,1.57
2018-12-21T13:15:57.643Z,3.27
2018-12-21T13:18:00.367Z,1.73
2018-12-21T13:20:07.954Z,6.60
2018-12-21T13:22:13.410Z,1.37
2018-12-21T13:24:20.502Z,1.60
2018-12-21T13:26:25.256Z,1.20
2018-12-21T13:28:27.986Z,1.47
2018-12-21T13:33:10.115Z,1.40
2018-12-21T13:35:13.538Z,3.90
2018-12-21T13:37:18.456Z,1.30
2018-12-21T13:39:21.439Z,1.20
2018-12-21T13:41:25.588Z,1.10
2018-12-21T13:43:29.273Z,1.60
2018-12-21T13:45:34.323Z,1.50
2018-12-21T13:47:38.031Z,1.37
2018-12-21T13:49:42.787Z,1.20
2018-12-21T13:51:47.285Z,1.33
2018-12-21T13:53:52.499Z,1.50
2018-12-21T13:56:00.072Z,1.20
2018-12-21T13:58:04.789Z,4.53
2018-12-21T14:00:10.778Z,1.40
2018-12-21T14:02:14.800Z,2.67
2018-12-21T14:04:18.247Z,1.70
2018-12-21T14:06:22.998Z,1.60
2018-12-21T14:08:25.925Z,2.03
2018-12-21T14:10:28.559Z,1.20
2018-12-21T14:12:31.472Z,7.23
2018-12-21T14:14:35.554Z,1.53
2018-12-21T14:16:38.404Z,1.50
2018-12-21T14:18:40.982Z,1.60
2018-12-21T14:20:43.712Z,8.13
2018-12-21T14:22:46.731Z,2.03
2018-12-21T14:24:49.942Z,1.33
2018-12-21T14:26:52.587Z,1.70
2018-12-21T14:28:55.386Z,1.97
2018-12-21T14:30:58.373Z,1.63
2018-12-21T14:33:01.050Z,1.50
2018-12-21T14:35:04.390Z,5.70
2018-12-21T14:37:07.253Z,1.30
2018-12-21T14:39:09.872Z,1.50
2018-12-21T14:41:12.452Z,1.57
2018-12-21T14:43:15.026Z,1.50
2018-12-21T14:45:17.711Z,2.20
2018-12-21T14:47:20.275Z,3.07
2018-12-21T14:49:22.958Z,3.20
2018-12-21T14:51:25.528Z,2.60
2018-12-21T14:53:28.127Z,2.93
2018-12-21T14:55:37.440Z,3.40
2018-12-21T14:57:36.942Z,1.30
2018-12-21T14:59:39.598Z,1.47
2018-12-21T15:01:42.189Z,1.27
2018-12-21T15:03:44.795Z,5.37
2018-12-21T15:05:47.412Z,3.03
2018-12-21T15:07:50.085Z,1.70
2018-12-21T15:09:53.044Z,2.50
2018-12-21T15:11:55.626Z,1.53
2018-12-21T15:13:58.230Z,2.73
2018-12-21T15:16:00.842Z,1.67
2018-12-21T15:18:03.411Z,2.50
2018-12-21T15:20:07.427Z,2.13
2018-12-21T15:22:10.023Z,1.60
2018-12-21T15:24:12.639Z,2.10
2018-12-21T15:26:15.254Z,1.37
2018-12-21T15:28:17.996Z,1.30
2018-12-21T15:30:20.603Z,2.20
2018-12-21T15:32:23.203Z,1.73
2018-12-21T15:34:26.273Z,1.40
2018-12-21T15:36:28.941Z,2.30
2018-12-21T15:38:31.763Z,1.60
2018-12-21T15:40:34.534Z,1.40
2018-12-21T15:42:37.098Z,1.43
2018-12-21T15:44:39.744Z,4.20
2018-12-21T15:46:42.387Z,2.47
2018-12-21T15:48:45.288Z,2.87
2018-12-21T15:50:48.751Z,2.10
2018-12-21T15:52:52.211Z,1.20
2018-12-21T15:54:54.931Z,1.50
2018-12-21T15:56:58.331Z,1.70
2018-12-21T15:59:00.963Z,1.70
2018-12-21T16:01:03.852Z,1.87
2018-12-21T16:03:06.582Z,2.13
2018-12-21T16:05:09.182Z,2.07
2018-12-21T16:07:11.851Z,2.13
2018-12-21T16:09:14.459Z,1.67
2018-12-21T16:11:17.119Z,1.53
2018-12-21T16:13:19.763Z,4.77
2018-12-21T16:15:22.482Z,1.60
2018-12-21T16:17:25.156Z,6.00
2018-12-21T16:19:28.020Z,1.40
2018-12-21T16:21:30.675Z,1.80
2018-12-21T16:23:33.502Z,1.60
2018-12-21T16:25:36.353Z,1.50
2018-12-21T16:27:39.977Z,2.17
2018-12-21T16:29:42.940Z,1.57
2018-12-21T16:31:46.008Z,1.60
2018-12-21T16:33:48.804Z,2.10
2018-12-21T16:35:51.571Z,1.30
2018-12-21T16:37:54.600Z,1.67
2018-12-21T16:39:57.216Z,1.57
2018-12-21T16:42:00.028Z,1.90
2018-12-21T16:44:02.687Z,1.60
2018-12-21T16:46:05.367Z,1.70
2018-12-21T16:48:07.957Z,1.73
2018-12-21T16:50:10.827Z,1.97
2018-12-21T16:52:13.431Z,2.90
2018-12-21T16:54:16.186Z,3.67
2018-12-21T16:56:18.833Z,1.90
2018-12-21T16:58:21.436Z,2.20
2018-12-21T17:00:24.125Z,1.70
2018-12-21T17:02:26.799Z,3.13
2018-12-21T17:04:29.454Z,1.97
2018-12-21T17:06:32.326Z,2.10
2018-12-21T17:08:35.037Z,2.10
2018-12-21T17:10:37.637Z,2.23
2018-12-21T17:12:40.505Z,2.30
2018-12-21T17:14:43.199Z,2.20
2018-12-21T17:16:45.869Z,2.50
2018-12-21T17:18:48.514Z,2.50
2018-12-21T17:20:51.165Z,2.20
2018-12-21T17:22:54.829Z,3.70
2018-12-21T17:24:57.433Z,2.90
2018-12-21T17:27:00.057Z,2.77
2018-12-21T17:29:02.648Z,3.10
2018-12-21T17:31:05.273Z,3.50
2018-12-21T17:33:07.897Z,3.20
2018-12-21T17:35:10.527Z,2.63
2018-12-21T17:37:14.044Z,3.80
2018-12-21T17:39:16.623Z,4.80
2018-12-21T17:41:19.201Z,3.37
2018-12-21T17:43:22.506Z,2.93
2018-12-21T17:45:25.144Z,3.30
2018-12-21T17:47:28.020Z,4.43
2018-12-21T17:49:30.622Z,2.93
2018-12-21T17:51:33.283Z,2.57
2018-12-21T17:53:35.993Z,2.53
2018-12-21T17:55:40.388Z,3.60
2018-12-21T17:57:43.571Z,3.00
2018-12-21T17:59:46.171Z,3.90
2018-12-21T18:01:48.776Z,3.17
2018-12-21T18:03:52.400Z,2.80
2018-12-21T18:05:55.011Z,3.30
2018-12-21T18:07:58.163Z,3.00
2018-12-21T18:10:00.738Z,3.90
2018-12-21T18:12:03.340Z,3.07
2018-12-21T18:14:05.991Z,2.83
2018-12-21T18:16:08.564Z,2.97
2018-12-21T18:18:11.233Z,3.00
2018-12-21T18:20:13.814Z,3.13
2018-12-21T18:22:16.459Z,6.20
2018-12-21T18:24:20.523Z,2.50
2018-12-21T18:26:23.616Z,2.60
2018-12-21T18:28:27.081Z,2.70
2018-12-21T18:30:30.576Z,2.53
2018-12-21T18:32:33.216Z,3.17
2018-12-21T18:34:35.828Z,4.00
2018-12-21T18:36:38.895Z,3.93
2018-12-21T18:38:42.036Z,3.40
2018-12-21T18:40:44.676Z,2.73
2018-12-21T18:42:47.356Z,2.47
2018-12-21T18:44:51.336Z,2.80
2018-12-21T18:46:53.910Z,2.90
2018-12-21T18:48:57.868Z,2.47
2018-12-21T18:51:00.485Z,2.10
2018-12-21T18:53:03.948Z,2.20
2018-12-21T18:55:11.434Z,2.90
2018-12-21T18:57:14.405Z,2.40
2018-12-21T18:59:17.040Z,2.50
2018-12-21T19:01:19.684Z,2.70
2018-12-21T19:03:22.315Z,3.97
2018-12-21T19:05:25.325Z,2.10
2018-12-21T19:07:27.972Z,2.30
2018-12-21T19:09:30.590Z,2.53
2018-12-21T19:11:33.218Z,2.93
2018-12-21T19:13:35.951Z,2.17
2018-12-21T19:15:38.685Z,3.13
2018-12-21T19:17:41.279Z,2.33
2018-12-21T19:19:43.935Z,2.50
2018-12-21T19:21:47.270Z,2.33
2018-12-21T19:23:49.998Z,2.77
2018-12-21T19:25:52.599Z,2.47
2018-12-21T19:27:55.202Z,2.83
2018-12-21T19:29:57.952Z,3.20
2018-12-21T19:32:01.395Z,4.80
2018-12-21T19:34:04.116Z,2.40
2018-12-21T19:36:06.792Z,2.07
2018-12-21T19:38:09.562Z,3.10
2018-12-21T19:40:12.275Z,2.60
2018-12-21T19:42:14.951Z,2.53
2018-12-21T19:44:17.602Z,5.17
2018-12-21T19:46:20.198Z,2.07
2018-12-21T19:48:23.559Z,3.17
2018-12-21T19:50:27.026Z,2.33
2018-12-21T19:52:29.629Z,2.17
2018-12-21T19:54:32.333Z,2.87
2018-12-21T19:56:38.671Z,2.50
2018-12-21T19:58:41.296Z,2.90
2018-12-21T20:00:44.193Z,2.07
2018-12-21T20:02:46.824Z,5.30
2018-12-21T20:04:49.472Z,2.37
2018-12-21T20:06:52.565Z,2.90
2018-12-21T20:08:55.175Z,5.00
2018-12-21T20:10:57.847Z,2.30
2018-12-21T20:13:00.486Z,4.20
2018-12-21T20:15:03.304Z,3.63
2018-12-21T20:17:05.901Z,3.43
2018-12-21T20:19:08.544Z,2.47
2018-12-21T20:21:11.234Z,3.50
2018-12-21T20:23:13.866Z,2.47
2018-12-21T20:25:16.481Z,2.20
2018-12-21T20:27:19.082Z,3.10
2018-12-21T20:29:21.665Z,3.13
2018-12-21T20:31:24.263Z,2.90
2018-12-21T20:33:26.901Z,2.20
2018-12-21T20:35:29.557Z,2.67
2018-12-21T20:37:32.284Z,4.10
2018-12-21T20:39:34.923Z,2.70
2018-12-21T20:41:37.651Z,2.60
2018-12-21T20:43:40.433Z,3.40
2018-12-21T20:45:43.100Z,3.57
2018-12-21T20:47:45.706Z,2.30
2018-12-21T20:49:48.301Z,3.57
2018-12-21T20:51:50.927Z,2.80
2018-12-21T20:53:53.503Z,3.13
2018-12-21T20:55:56.152Z,2.43
2018-12-21T20:57:59.061Z,1.80
2018-12-21T21:00:01.671Z,2.10
2018-12-21T21:02:04.390Z,2.40
2018-12-21T21:04:06.988Z,3.40
2018-12-21T21:06:09.617Z,1.93
2018-12-21T21:08:13.236Z,2.10
2018-12-21T21:10:15.859Z,3.70
2018-12-21T21:12:18.470Z,3.20
2018-12-21T21:14:21.116Z,2.27
2018-12-21T21:16:25.331Z,2.20
2018-12-21T21:18:28.121Z,1.70
2018-12-21T21:20:31.842Z,2.00
2018-12-21T21:22:34.763Z,1.77
2018-12-21T21:24:41.464Z,2.17
2018-12-21T21:26:44.553Z,2.33
2018-12-21T21:28:47.196Z,2.63
2018-12-21T21:30:49.839Z,2.37
2018-12-21T21:32:52.482Z,1.77
2018-12-21T21:34:55.119Z,2.50
2018-12-21T21:36:57.865Z,4.00
2018-12-21T21:39:01.112Z,2.10
2018-12-21T21:41:03.814Z,2.33
2018-12-21T21:43:06.962Z,2.53
2018-12-21T21:45:10.040Z,3.50
2018-12-21T21:47:12.799Z,2.50
2018-12-21T21:49:15.367Z,3.53
2018-12-21T21:51:19.208Z,5.83
2018-12-21T21:53:21.918Z,2.70
2018-12-21T21:55:24.526Z,2.53
2018-12-21T21:57:27.238Z,2.60
2018-12-21T21:59:29.841Z,2.77
2018-12-21T22:01:32.501Z,2.20
2018-12-21T22:03:35.295Z,6.23
2018-12-21T22:05:38.188Z,2.47
2018-12-21T22:07:40.912Z,2.93
2018-12-21T22:09:43.631Z,3.10
2018-12-21T22:11:46.311Z,4.60
2018-12-21T22:13:48.897Z,3.23
2018-12-21T22:15:51.847Z,3.00
2018-12-21T22:17:55.151Z,6.83
2018-12-21T22:19:59.090Z,3.20
2018-12-21T22:22:01.745Z,2.87
2018-12-21T22:24:04.356Z,3.43
2018-12-21T22:26:07.015Z,2.33
2018-12-21T22:28:09.636Z,3.10
2018-12-21T22:30:12.245Z,4.77
2018-12-21T22:32:14.903Z,2.60
2018-12-21T22:34:17.648Z,3.33
2018-12-21T22:36:20.312Z,2.30
2018-12-21T22:38:22.959Z,2.60
2018-12-21T22:40:25.706Z,2.50
2018-12-21T22:42:28.645Z,4.37
2018-12-21T22:44:31.347Z,2.77
2018-12-21T22:46:33.955Z,2.80
2018-12-21T22:48:36.563Z,2.77
2018-12-21T22:50:39.155Z,2.70
2018-12-21T22:52:41.793Z,5.37
2018-12-21T22:54:44.440Z,2.60
2018-12-21T22:56:47.023Z,2.93
2018-12-21T22:58:49.714Z,2.93
2018-12-21T23:00:52.377Z,2.70
2018-12-21T23:02:55.003Z,2.50
2018-12-21T23:04:57.645Z,3.10
2018-12-21T23:07:00.357Z,2.97
2018-12-21T23:09:03.095Z,3.13
2018-12-21T23:11:05.779Z,3.20
2018-12-21T23:13:08.501Z,3.73
2018-12-21T23:15:11.161Z,2.40
2018-12-21T23:17:13.765Z,3.50
2018-12-21T23:19:16.382Z,3.27
2018-12-21T23:21:18.950Z,4.30
2018-12-21T23:23:22.805Z,3.43
2018-12-21T23:25:25.537Z,3.37
2018-12-21T23:27:28.207Z,3.80
2018-12-21T23:29:30.881Z,2.53
2018-12-21T23:31:33.533Z,3.70
2018-12-21T23:33:36.276Z,4.40
2018-12-21T23:35:38.903Z,6.37
2018-12-21T23:37:41.483Z,3.13
2018-12-21T23:39:44.126Z,4.20
2018-12-21T23:41:46.800Z,2.43
2018-12-21T23:43:49.521Z,2.30
2018-12-21T23:45:52.133Z,4.83
2018-12-21T23:47:54.753Z,3.90
2018-12-21T23:49:57.403Z,4.00
2018-12-21T23:52:00.241Z,4.37
2018-12-21T23:54:02.930Z,2.73
2018-12-21T23:56:12.096Z,3.70
2018-12-21T23:58:13.870Z,4.87
